sensor_id;sensor_type;location;lat;lon;timestamp;P1;durP1;ratioP1;P2;durP2;ratioP2
66546;SDS011;53400;50.364;14.874;2022-11-02T00:00:34;44.33;;;22.73;;
66546;SDS011;53400;50.364;14.874;2022-11-02T00:03:21;172.45;;;28.65;;
66546;SDS011;53400;50.364;14.874;2022-11-02T00:05:47;153.43;;;28.58;;
66546;SDS011;53400;50.364;14.874;2022-11-02T00:08:14;114.75;;;26.95;;
66546;SDS011;53400;50.364;14.874;2022-11-02T00:10:40;85.30;;;24.88;;
66546;SDS011;53400;50.364;14.874;2022-11-02T00:13:06;50.00;;;22.98;;
66546;SDS011;53400;50.364;14.874;2022-11-02T00:15:32;93.25;;;26.00;;
66546;SDS011;53400;50.364;14.874;2022-11-02T00:18:00;76.18;;;24.48;;
66546;SDS011;53400;50.364;14.874;2022-11-02T00:20:29;48.90;;;22.60;;
66546;SDS011;53400;50.364;14.874;2022-11-02T00:22:57;116.55;;;27.10;;
66546;SDS011;53400;50.364;14.874;2022-11-02T00:25:26;66.60;;;25.80;;
66546;SDS011;53400;50.364;14.874;2022-11-02T00:27:53;48.42;;;23.65;;
66546;SDS011;53400;50.364;14.874;2022-11-02T00:30:19;52.08;;;23.40;;
66546;SDS011;53400;50.364;14.874;2022-11-02T00:32:45;59.40;;;23.73;;
66546;SDS011;53400;50.364;14.874;2022-11-02T00:35:11;77.35;;;24.83;;
66546;SDS011;53400;50.364;14.874;2022-11-02T00:37:37;111.18;;;25.52;;
66546;SDS011;53400;50.364;14.874;2022-11-02T00:40:04;52.75;;;21.85;;
66546;SDS011;53400;50.364;14.874;2022-11-02T00:42:32;52.97;;;22.02;;
66546;SDS011;53400;50.364;14.874;2022-11-02T00:44:57;92.93;;;24.45;;
66546;SDS011;53400;50.364;14.874;2022-11-02T00:47:23;98.10;;;24.65;;
66546;SDS011;53400;50.364;14.874;2022-11-02T00:49:49;146.20;;;27.80;;
66546;SDS011;53400;50.364;14.874;2022-11-02T00:52:15;104.97;;;22.52;;
66546;SDS011;53400;50.364;14.874;2022-11-02T00:54:41;135.25;;;28.05;;
66546;SDS011;53400;50.364;14.874;2022-11-02T00:57:07;101.65;;;25.13;;
66546;SDS011;53400;50.364;14.874;2022-11-02T00:59:35;87.55;;;25.00;;
66546;SDS011;53400;50.364;14.874;2022-11-02T01:02:00;86.43;;;24.48;;
66546;SDS011;53400;50.364;14.874;2022-11-02T01:04:26;127.15;;;27.30;;
66546;SDS011;53400;50.364;14.874;2022-11-02T01:06:52;90.50;;;25.13;;
66546;SDS011;53400;50.364;14.874;2022-11-02T01:09:18;99.75;;;23.75;;
66546;SDS011;53400;50.364;14.874;2022-11-02T01:11:46;132.23;;;26.67;;
66546;SDS011;53400;50.364;14.874;2022-11-02T01:14:11;151.75;;;29.10;;
66546;SDS011;53400;50.364;14.874;2022-11-02T01:16:39;93.20;;;27.15;;
66546;SDS011;53400;50.364;14.874;2022-11-02T01:19:06;84.03;;;25.05;;
66546;SDS011;53400;50.364;14.874;2022-11-02T01:21:32;60.58;;;24.40;;
66546;SDS011;53400;50.364;14.874;2022-11-02T01:23:58;70.90;;;24.45;;
66546;SDS011;53400;50.364;14.874;2022-11-02T01:26:24;62.72;;;24.35;;
66546;SDS011;53400;50.364;14.874;2022-11-02T01:28:51;115.82;;;27.08;;
66546;SDS011;53400;50.364;14.874;2022-11-02T01:31:17;101.88;;;26.20;;
66546;SDS011;53400;50.364;14.874;2022-11-02T01:33:45;178.32;;;33.42;;
66546;SDS011;53400;50.364;14.874;2022-11-02T01:36:12;77.35;;;26.55;;
66546;SDS011;53400;50.364;14.874;2022-11-02T01:38:39;112.88;;;28.65;;
66546;SDS011;53400;50.364;14.874;2022-11-02T01:41:05;116.78;;;29.40;;
66546;SDS011;53400;50.364;14.874;2022-11-02T01:43:31;110.30;;;27.10;;
66546;SDS011;53400;50.364;14.874;2022-11-02T01:45:59;112.50;;;26.35;;
66546;SDS011;53400;50.364;14.874;2022-11-02T01:48:31;114.03;;;26.60;;
66546;SDS011;53400;50.364;14.874;2022-11-02T01:51:00;72.47;;;26.33;;
66546;SDS011;53400;50.364;14.874;2022-11-02T01:53:30;89.32;;;25.42;;
66546;SDS011;53400;50.364;14.874;2022-11-02T01:55:58;63.88;;;23.63;;
66546;SDS011;53400;50.364;14.874;2022-11-02T01:58:25;66.15;;;26.33;;
66546;SDS011;53400;50.364;14.874;2022-11-02T02:00:51;111.45;;;28.33;;
66546;SDS011;53400;50.364;14.874;2022-11-02T02:03:18;63.40;;;25.90;;
66546;SDS011;53400;50.364;14.874;2022-11-02T02:05:46;54.65;;;24.65;;
66546;SDS011;53400;50.364;14.874;2022-11-02T02:08:19;61.80;;;24.63;;
66546;SDS011;53400;50.364;14.874;2022-11-02T02:10:47;59.63;;;25.80;;
66546;SDS011;53400;50.364;14.874;2022-11-02T02:13:13;63.28;;;25.55;;
66546;SDS011;53400;50.364;14.874;2022-11-02T02:15:42;52.60;;;23.75;;
66546;SDS011;53400;50.364;14.874;2022-11-02T02:18:15;50.47;;;23.98;;
66546;SDS011;53400;50.364;14.874;2022-11-02T02:20:55;66.32;;;25.17;;
66546;SDS011;53400;50.364;14.874;2022-11-02T02:23:35;48.97;;;22.23;;
66546;SDS011;53400;50.364;14.874;2022-11-02T02:26:13;44.10;;;21.10;;
66546;SDS011;53400;50.364;14.874;2022-11-02T02:28:58;43.47;;;19.65;;
66546;SDS011;53400;50.364;14.874;2022-11-02T02:31:29;42.05;;;19.65;;
66546;SDS011;53400;50.364;14.874;2022-11-02T02:34:03;40.73;;;20.00;;
66546;SDS011;53400;50.364;14.874;2022-11-02T02:36:35;39.83;;;20.08;;
66546;SDS011;53400;50.364;14.874;2022-11-02T02:39:09;45.78;;;20.85;;
66546;SDS011;53400;50.364;14.874;2022-11-02T02:44:13;36.67;;;17.77;;
66546;SDS011;53400;50.364;14.874;2022-11-02T02:46:45;38.40;;;17.50;;
66546;SDS011;53400;50.364;14.874;2022-11-02T02:49:18;44.45;;;19.58;;
66546;SDS011;53400;50.364;14.874;2022-11-02T02:51:47;42.95;;;21.08;;
66546;SDS011;53400;50.364;14.874;2022-11-02T02:54:15;38.03;;;17.88;;
66546;SDS011;53400;50.364;14.874;2022-11-02T02:56:45;44.63;;;19.75;;
66546;SDS011;53400;50.364;14.874;2022-11-02T02:59:17;44.97;;;21.55;;
66546;SDS011;53400;50.364;14.874;2022-11-02T03:01:47;43.35;;;20.67;;
66546;SDS011;53400;50.364;14.874;2022-11-02T03:04:13;46.97;;;21.60;;
66546;SDS011;53400;50.364;14.874;2022-11-02T03:06:40;51.38;;;21.90;;
66546;SDS011;53400;50.364;14.874;2022-11-02T03:09:11;53.05;;;23.15;;
66546;SDS011;53400;50.364;14.874;2022-11-02T03:11:45;45.83;;;21.25;;
66546;SDS011;53400;50.364;14.874;2022-11-02T03:14:25;44.70;;;20.75;;
66546;SDS011;53400;50.364;14.874;2022-11-02T03:17:05;47.38;;;20.17;;
66546;SDS011;53400;50.364;14.874;2022-11-02T03:19:40;46.97;;;20.50;;
66546;SDS011;53400;50.364;14.874;2022-11-02T03:22:16;42.88;;;19.45;;
66546;SDS011;53400;50.364;14.874;2022-11-02T03:24:48;39.40;;;19.23;;
66546;SDS011;53400;50.364;14.874;2022-11-02T03:27:19;48.55;;;21.00;;
66546;SDS011;53400;50.364;14.874;2022-11-02T03:29:54;45.80;;;20.90;;
66546;SDS011;53400;50.364;14.874;2022-11-02T03:32:29;41.65;;;19.75;;
66546;SDS011;53400;50.364;14.874;2022-11-02T03:35:01;41.13;;;20.13;;
66546;SDS011;53400;50.364;14.874;2022-11-02T03:37:32;44.00;;;19.50;;
66546;SDS011;53400;50.364;14.874;2022-11-02T03:40:03;46.95;;;19.83;;
66546;SDS011;53400;50.364;14.874;2022-11-02T03:42:33;48.63;;;20.58;;
66546;SDS011;53400;50.364;14.874;2022-11-02T03:45:03;42.42;;;19.55;;
66546;SDS011;53400;50.364;14.874;2022-11-02T03:47:32;44.22;;;20.13;;
66546;SDS011;53400;50.364;14.874;2022-11-02T03:50:01;44.30;;;20.38;;
66546;SDS011;53400;50.364;14.874;2022-11-02T03:52:30;45.60;;;20.75;;
66546;SDS011;53400;50.364;14.874;2022-11-02T03:55:01;41.00;;;18.95;;
66546;SDS011;53400;50.364;14.874;2022-11-02T03:57:32;41.50;;;20.07;;
66546;SDS011;53400;50.364;14.874;2022-11-02T04:00:09;40.65;;;18.98;;
66546;SDS011;53400;50.364;14.874;2022-11-02T04:02:36;41.15;;;19.73;;
66546;SDS011;53400;50.364;14.874;2022-11-02T04:05:04;39.80;;;19.42;;
66546;SDS011;53400;50.364;14.874;2022-11-02T04:07:31;43.97;;;19.85;;
66546;SDS011;53400;50.364;14.874;2022-11-02T04:10:18;42.60;;;20.38;;
66546;SDS011;53400;50.364;14.874;2022-11-02T04:12:45;43.88;;;19.95;;
66546;SDS011;53400;50.364;14.874;2022-11-02T04:15:31;43.20;;;20.08;;
66546;SDS011;53400;50.364;14.874;2022-11-02T04:17:57;42.65;;;19.38;;
66546;SDS011;53400;50.364;14.874;2022-11-02T04:20:41;40.45;;;19.33;;
66546;SDS011;53400;50.364;14.874;2022-11-02T04:23:07;40.47;;;19.73;;
66546;SDS011;53400;50.364;14.874;2022-11-02T04:25:51;38.28;;;16.85;;
66546;SDS011;53400;50.364;14.874;2022-11-02T04:28:18;45.03;;;19.60;;
66546;SDS011;53400;50.364;14.874;2022-11-02T04:30:46;56.70;;;22.08;;
66546;SDS011;53400;50.364;14.874;2022-11-02T04:33:12;42.67;;;20.15;;
66546;SDS011;53400;50.364;14.874;2022-11-02T04:35:57;51.35;;;20.52;;
66546;SDS011;53400;50.364;14.874;2022-11-02T04:38:24;52.40;;;20.73;;
66546;SDS011;53400;50.364;14.874;2022-11-02T04:41:04;49.20;;;19.88;;
66546;SDS011;53400;50.364;14.874;2022-11-02T04:43:49;57.72;;;19.98;;
66546;SDS011;53400;50.364;14.874;2022-11-02T04:46:17;56.70;;;19.77;;
66546;SDS011;53400;50.364;14.874;2022-11-02T04:48:43;57.38;;;19.83;;
66546;SDS011;53400;50.364;14.874;2022-11-02T04:51:09;58.85;;;20.15;;
66546;SDS011;53400;50.364;14.874;2022-11-02T04:53:35;47.55;;;20.52;;
66546;SDS011;53400;50.364;14.874;2022-11-02T04:56:00;51.03;;;20.25;;
66546;SDS011;53400;50.364;14.874;2022-11-02T04:58:26;49.22;;;19.35;;
66546;SDS011;53400;50.364;14.874;2022-11-02T05:00:52;40.90;;;18.77;;
66546;SDS011;53400;50.364;14.874;2022-11-02T05:03:19;62.10;;;22.58;;
66546;SDS011;53400;50.364;14.874;2022-11-02T05:05:45;61.15;;;20.13;;
66546;SDS011;53400;50.364;14.874;2022-11-02T05:08:11;68.25;;;19.63;;
66546;SDS011;53400;50.364;14.874;2022-11-02T05:10:37;63.65;;;21.80;;
66546;SDS011;53400;50.364;14.874;2022-11-02T05:13:03;59.42;;;19.65;;
66546;SDS011;53400;50.364;14.874;2022-11-02T05:15:29;52.15;;;18.35;;
66546;SDS011;53400;50.364;14.874;2022-11-02T05:17:55;65.07;;;19.77;;
66546;SDS011;53400;50.364;14.874;2022-11-02T05:20:22;67.78;;;19.75;;
66546;SDS011;53400;50.364;14.874;2022-11-02T05:22:48;71.60;;;19.17;;
66546;SDS011;53400;50.364;14.874;2022-11-02T05:25:14;64.30;;;21.15;;
66546;SDS011;53400;50.364;14.874;2022-11-02T05:27:40;57.13;;;20.65;;
66546;SDS011;53400;50.364;14.874;2022-11-02T05:30:06;50.58;;;19.25;;
66546;SDS011;53400;50.364;14.874;2022-11-02T05:32:33;73.38;;;20.17;;
66546;SDS011;53400;50.364;14.874;2022-11-02T05:34:59;71.50;;;20.85;;
66546;SDS011;53400;50.364;14.874;2022-11-02T05:37:26;50.97;;;18.88;;
66546;SDS011;53400;50.364;14.874;2022-11-02T05:39:52;73.07;;;20.98;;
66546;SDS011;53400;50.364;14.874;2022-11-02T05:42:18;58.03;;;19.90;;
66546;SDS011;53400;50.364;14.874;2022-11-02T05:44:44;55.05;;;20.15;;
66546;SDS011;53400;50.364;14.874;2022-11-02T05:47:10;57.10;;;20.60;;
66546;SDS011;53400;50.364;14.874;2022-11-02T05:49:36;54.50;;;19.33;;
66546;SDS011;53400;50.364;14.874;2022-11-02T05:52:02;49.17;;;19.95;;
66546;SDS011;53400;50.364;14.874;2022-11-02T05:54:30;48.78;;;19.67;;
66546;SDS011;53400;50.364;14.874;2022-11-02T05:56:56;61.22;;;21.58;;
66546;SDS011;53400;50.364;14.874;2022-11-02T05:59:21;55.53;;;20.75;;
66546;SDS011;53400;50.364;14.874;2022-11-02T06:01:47;48.50;;;20.00;;
66546;SDS011;53400;50.364;14.874;2022-11-02T06:04:14;50.90;;;20.55;;
66546;SDS011;53400;50.364;14.874;2022-11-02T06:06:40;32.72;;;15.00;;
66546;SDS011;53400;50.364;14.874;2022-11-02T06:09:05;47.67;;;20.63;;
66546;SDS011;53400;50.364;14.874;2022-11-02T06:11:33;41.55;;;19.70;;
66546;SDS011;53400;50.364;14.874;2022-11-02T06:13:59;47.17;;;20.88;;
66546;SDS011;53400;50.364;14.874;2022-11-02T06:16:25;57.97;;;20.70;;
66546;SDS011;53400;50.364;14.874;2022-11-02T06:18:51;51.17;;;19.48;;
66546;SDS011;53400;50.364;14.874;2022-11-02T06:21:17;39.53;;;18.65;;
66546;SDS011;53400;50.364;14.874;2022-11-02T06:23:45;53.58;;;19.85;;
66546;SDS011;53400;50.364;14.874;2022-11-02T06:26:11;44.55;;;18.63;;
66546;SDS011;53400;50.364;14.874;2022-11-02T06:28:38;68.78;;;20.95;;
66546;SDS011;53400;50.364;14.874;2022-11-02T06:31:05;83.07;;;20.58;;
66546;SDS011;53400;50.364;14.874;2022-11-02T06:33:30;60.78;;;18.75;;
66546;SDS011;53400;50.364;14.874;2022-11-02T06:35:57;63.67;;;20.00;;
66546;SDS011;53400;50.364;14.874;2022-11-02T06:38:22;55.53;;;20.02;;
66546;SDS011;53400;50.364;14.874;2022-11-02T06:40:52;71.50;;;19.90;;
66546;SDS011;53400;50.364;14.874;2022-11-02T06:43:19;35.20;;;16.95;;
66546;SDS011;53400;50.364;14.874;2022-11-02T06:45:47;74.22;;;20.90;;
66546;SDS011;53400;50.364;14.874;2022-11-02T06:48:12;86.03;;;20.27;;
66546;SDS011;53400;50.364;14.874;2022-11-02T06:50:39;102.07;;;21.55;;
66546;SDS011;53400;50.364;14.874;2022-11-02T06:53:04;121.47;;;21.80;;
66546;SDS011;53400;50.364;14.874;2022-11-02T06:55:30;83.13;;;20.27;;
66546;SDS011;53400;50.364;14.874;2022-11-02T06:57:56;42.92;;;17.65;;
66546;SDS011;53400;50.364;14.874;2022-11-02T07:00:22;37.22;;;17.25;;
66546;SDS011;53400;50.364;14.874;2022-11-02T07:02:58;170.75;;;23.40;;
66546;SDS011;53400;50.364;14.874;2022-11-02T07:05:25;122.55;;;21.77;;
66546;SDS011;53400;50.364;14.874;2022-11-02T07:07:52;117.85;;;22.42;;
66546;SDS011;53400;50.364;14.874;2022-11-02T07:10:18;71.68;;;19.25;;
66546;SDS011;53400;50.364;14.874;2022-11-02T07:12:43;70.70;;;20.33;;
66546;SDS011;53400;50.364;14.874;2022-11-02T07:15:09;64.20;;;19.88;;
66546;SDS011;53400;50.364;14.874;2022-11-02T07:17:37;37.38;;;17.90;;
66546;SDS011;53400;50.364;14.874;2022-11-02T07:20:05;51.45;;;17.42;;
66546;SDS011;53400;50.364;14.874;2022-11-02T07:22:32;83.85;;;20.13;;
66546;SDS011;53400;50.364;14.874;2022-11-02T07:24:58;61.05;;;18.63;;
66546;SDS011;53400;50.364;14.874;2022-11-02T07:27:23;110.35;;;22.23;;
66546;SDS011;53400;50.364;14.874;2022-11-02T07:29:49;95.20;;;19.25;;
66546;SDS011;53400;50.364;14.874;2022-11-02T07:32:15;59.53;;;18.25;;
66546;SDS011;53400;50.364;14.874;2022-11-02T07:34:41;43.78;;;17.27;;
66546;SDS011;53400;50.364;14.874;2022-11-02T07:37:08;109.13;;;18.73;;
66546;SDS011;53400;50.364;14.874;2022-11-02T07:39:34;27.65;;;15.15;;
66546;SDS011;53400;50.364;14.874;2022-11-02T07:42:00;35.67;;;16.70;;
66546;SDS011;53400;50.364;14.874;2022-11-02T07:44:26;43.53;;;15.20;;
66546;SDS011;53400;50.364;14.874;2022-11-02T07:46:52;63.17;;;17.38;;
66546;SDS011;53400;50.364;14.874;2022-11-02T07:49:18;30.42;;;14.93;;
66546;SDS011;53400;50.364;14.874;2022-11-02T07:51:44;39.38;;;15.70;;
66546;SDS011;53400;50.364;14.874;2022-11-02T07:54:11;26.10;;;14.10;;
66546;SDS011;53400;50.364;14.874;2022-11-02T07:56:37;45.25;;;14.60;;
66546;SDS011;53400;50.364;14.874;2022-11-02T07:59:03;38.30;;;15.82;;
66546;SDS011;53400;50.364;14.874;2022-11-02T08:01:29;44.30;;;17.52;;
66546;SDS011;53400;50.364;14.874;2022-11-02T08:03:56;37.17;;;15.40;;
66546;SDS011;53400;50.364;14.874;2022-11-02T08:06:22;42.28;;;16.20;;
66546;SDS011;53400;50.364;14.874;2022-11-02T08:08:48;31.70;;;15.95;;
66546;SDS011;53400;50.364;14.874;2022-11-02T08:11:35;36.50;;;17.33;;
66546;SDS011;53400;50.364;14.874;2022-11-02T08:14:01;25.23;;;13.93;;
66546;SDS011;53400;50.364;14.874;2022-11-02T08:16:27;38.33;;;15.93;;
66546;SDS011;53400;50.364;14.874;2022-11-02T08:18:57;38.15;;;15.48;;
66546;SDS011;53400;50.364;14.874;2022-11-02T08:21:23;33.25;;;15.50;;
66546;SDS011;53400;50.364;14.874;2022-11-02T08:23:49;31.92;;;17.08;;
66546;SDS011;53400;50.364;14.874;2022-11-02T08:26:15;33.33;;;15.88;;
66546;SDS011;53400;50.364;14.874;2022-11-02T08:28:43;38.88;;;15.43;;
66546;SDS011;53400;50.364;14.874;2022-11-02T08:31:10;30.00;;;14.98;;
66546;SDS011;53400;50.364;14.874;2022-11-02T08:33:39;30.52;;;16.02;;
66546;SDS011;53400;50.364;14.874;2022-11-02T08:36:05;27.15;;;16.02;;
66546;SDS011;53400;50.364;14.874;2022-11-02T08:38:31;26.17;;;15.20;;
66546;SDS011;53400;50.364;14.874;2022-11-02T08:40:57;26.98;;;15.32;;
66546;SDS011;53400;50.364;14.874;2022-11-02T08:43:23;24.88;;;15.27;;
66546;SDS011;53400;50.364;14.874;2022-11-02T08:45:50;28.73;;;15.63;;
66546;SDS011;53400;50.364;14.874;2022-11-02T08:48:17;23.75;;;15.05;;
66546;SDS011;53400;50.364;14.874;2022-11-02T08:50:42;25.45;;;15.38;;
66546;SDS011;53400;50.364;14.874;2022-11-02T08:53:08;22.38;;;14.10;;
66546;SDS011;53400;50.364;14.874;2022-11-02T08:55:34;25.70;;;15.23;;
66546;SDS011;53400;50.364;14.874;2022-11-02T08:58:01;26.60;;;15.50;;
66546;SDS011;53400;50.364;14.874;2022-11-02T09:00:27;24.40;;;15.45;;
66546;SDS011;53400;50.364;14.874;2022-11-02T09:02:59;24.92;;;14.85;;
66546;SDS011;53400;50.364;14.874;2022-11-02T09:05:26;28.92;;;15.95;;
66546;SDS011;53400;50.364;14.874;2022-11-02T09:07:54;25.80;;;17.67;;
66546;SDS011;53400;50.364;14.874;2022-11-02T09:10:21;26.13;;;15.88;;
66546;SDS011;53400;50.364;14.874;2022-11-02T09:12:47;23.25;;;13.82;;
66546;SDS011;53400;50.364;14.874;2022-11-02T09:15:12;23.33;;;14.90;;
66546;SDS011;53400;50.364;14.874;2022-11-02T09:17:38;22.88;;;14.02;;
66546;SDS011;53400;50.364;14.874;2022-11-02T09:20:06;21.67;;;13.65;;
66546;SDS011;53400;50.364;14.874;2022-11-02T09:22:33;22.55;;;13.70;;
66546;SDS011;53400;50.364;14.874;2022-11-02T09:24:58;22.15;;;13.40;;
66546;SDS011;53400;50.364;14.874;2022-11-02T09:27:25;18.63;;;11.80;;
66546;SDS011;53400;50.364;14.874;2022-11-02T09:29:51;18.70;;;11.88;;
66546;SDS011;53400;50.364;14.874;2022-11-02T09:32:17;20.77;;;12.73;;
66546;SDS011;53400;50.364;14.874;2022-11-02T09:34:43;19.77;;;12.15;;
66546;SDS011;53400;50.364;14.874;2022-11-02T09:37:10;21.60;;;12.73;;
66546;SDS011;53400;50.364;14.874;2022-11-02T09:39:36;18.92;;;11.98;;
66546;SDS011;53400;50.364;14.874;2022-11-02T09:42:03;18.08;;;11.70;;
66546;SDS011;53400;50.364;14.874;2022-11-02T09:44:37;20.08;;;11.68;;
66546;SDS011;53400;50.364;14.874;2022-11-02T09:47:11;18.55;;;11.77;;
66546;SDS011;53400;50.364;14.874;2022-11-02T09:49:38;17.02;;;10.52;;
66546;SDS011;53400;50.364;14.874;2022-11-02T09:52:07;16.30;;;9.05;;
66546;SDS011;53400;50.364;14.874;2022-11-02T09:54:43;13.35;;;7.47;;
66546;SDS011;53400;50.364;14.874;2022-11-02T09:57:14;16.65;;;7.60;;
66546;SDS011;53400;50.364;14.874;2022-11-02T09:59:44;13.68;;;6.95;;
66546;SDS011;53400;50.364;14.874;2022-11-02T10:02:13;13.25;;;6.82;;
66546;SDS011;53400;50.364;14.874;2022-11-02T10:05:06;13.18;;;6.32;;
66546;SDS011;53400;50.364;14.874;2022-11-02T10:07:52;14.05;;;7.03;;
66546;SDS011;53400;50.364;14.874;2022-11-02T10:10:41;16.02;;;6.57;;
66546;SDS011;53400;50.364;14.874;2022-11-02T10:13:20;10.00;;;5.55;;
66546;SDS011;53400;50.364;14.874;2022-11-02T10:15:53;13.85;;;5.60;;
66546;SDS011;53400;50.364;14.874;2022-11-02T10:18:22;14.60;;;5.15;;
66546;SDS011;53400;50.364;14.874;2022-11-02T10:20:51;10.90;;;4.55;;
66546;SDS011;53400;50.364;14.874;2022-11-02T10:23:23;8.70;;;4.32;;
66546;SDS011;53400;50.364;14.874;2022-11-02T10:28:22;8.10;;;4.00;;
66546;SDS011;53400;50.364;14.874;2022-11-02T10:30:52;9.98;;;3.85;;
66546;SDS011;53400;50.364;14.874;2022-11-02T10:33:19;9.70;;;3.50;;
66546;SDS011;53400;50.364;14.874;2022-11-02T10:35:51;9.52;;;3.33;;
66546;SDS011;53400;50.364;14.874;2022-11-02T10:38:34;10.80;;;3.75;;
66546;SDS011;53400;50.364;14.874;2022-11-02T10:41:13;9.80;;;3.95;;
66546;SDS011;53400;50.364;14.874;2022-11-02T10:43:56;9.23;;;3.97;;
66546;SDS011;53400;50.364;14.874;2022-11-02T10:46:51;8.88;;;3.20;;
66546;SDS011;53400;50.364;14.874;2022-11-02T10:49:38;8.80;;;3.30;;
66546;SDS011;53400;50.364;14.874;2022-11-02T10:52:17;9.60;;;3.10;;
66546;SDS011;53400;50.364;14.874;2022-11-02T10:54:45;10.27;;;2.90;;
66546;SDS011;53400;50.364;14.874;2022-11-02T10:57:17;8.68;;;2.72;;
66546;SDS011;53400;50.364;14.874;2022-11-02T10:59:52;8.63;;;2.35;;
66546;SDS011;53400;50.364;14.874;2022-11-02T11:03:01;7.97;;;2.80;;
66546;SDS011;53400;50.364;14.874;2022-11-02T11:05:28;8.55;;;2.45;;
66546;SDS011;53400;50.364;14.874;2022-11-02T11:07:54;11.40;;;2.70;;
66546;SDS011;53400;50.364;14.874;2022-11-02T11:10:23;8.57;;;2.33;;
66546;SDS011;53400;50.364;14.874;2022-11-02T11:12:49;11.68;;;3.17;;
66546;SDS011;53400;50.364;14.874;2022-11-02T11:15:19;8.15;;;2.50;;
66546;SDS011;53400;50.364;14.874;2022-11-02T11:17:47;11.55;;;3.17;;
66546;SDS011;53400;50.364;14.874;2022-11-02T11:20:25;10.65;;;2.70;;
66546;SDS011;53400;50.364;14.874;2022-11-02T11:25:57;8.95;;;2.97;;
66546;SDS011;53400;50.364;14.874;2022-11-02T11:28:26;8.18;;;2.58;;
66546;SDS011;53400;50.364;14.874;2022-11-02T11:33:43;8.02;;;2.67;;
66546;SDS011;53400;50.364;14.874;2022-11-02T11:36:19;8.73;;;3.20;;
66546;SDS011;53400;50.364;14.874;2022-11-02T11:38:47;10.68;;;2.95;;
66546;SDS011;53400;50.364;14.874;2022-11-02T11:41:16;6.95;;;2.33;;
66546;SDS011;53400;50.364;14.874;2022-11-02T11:43:43;7.65;;;2.50;;
66546;SDS011;53400;50.364;14.874;2022-11-02T11:46:12;9.25;;;2.60;;
66546;SDS011;53400;50.364;14.874;2022-11-02T11:48:39;9.90;;;2.65;;
66546;SDS011;53400;50.364;14.874;2022-11-02T11:51:18;10.45;;;2.83;;
66546;SDS011;53400;50.364;14.874;2022-11-02T11:54:13;7.93;;;2.83;;
66546;SDS011;53400;50.364;14.874;2022-11-02T11:56:45;8.68;;;2.53;;
66546;SDS011;53400;50.364;14.874;2022-11-02T11:59:18;9.88;;;2.78;;
66546;SDS011;53400;50.364;14.874;2022-11-02T12:01:45;7.95;;;2.78;;
66546;SDS011;53400;50.364;14.874;2022-11-02T12:04:12;9.70;;;2.97;;
66546;SDS011;53400;50.364;14.874;2022-11-02T12:06:51;10.82;;;3.50;;
66546;SDS011;53400;50.364;14.874;2022-11-02T12:09:25;6.68;;;2.50;;
66546;SDS011;53400;50.364;14.874;2022-11-02T12:12:00;10.10;;;2.55;;
66546;SDS011;53400;50.364;14.874;2022-11-02T12:14:34;12.98;;;4.13;;
66546;SDS011;53400;50.364;14.874;2022-11-02T12:17:22;15.40;;;5.70;;
66546;SDS011;53400;50.364;14.874;2022-11-02T12:23:00;9.93;;;3.42;;
66546;SDS011;53400;50.364;14.874;2022-11-02T12:25:39;8.80;;;2.60;;
66546;SDS011;53400;50.364;14.874;2022-11-02T12:28:17;6.47;;;2.47;;
66546;SDS011;53400;50.364;14.874;2022-11-02T12:30:55;6.43;;;2.35;;
66546;SDS011;53400;50.364;14.874;2022-11-02T12:33:32;7.03;;;2.30;;
66546;SDS011;53400;50.364;14.874;2022-11-02T12:36:24;7.35;;;2.40;;
66546;SDS011;53400;50.364;14.874;2022-11-02T12:39:00;6.50;;;2.15;;
66546;SDS011;53400;50.364;14.874;2022-11-02T12:41:41;7.10;;;2.15;;
66546;SDS011;53400;50.364;14.874;2022-11-02T12:44:20;5.93;;;2.20;;
66546;SDS011;53400;50.364;14.874;2022-11-02T12:49:32;6.85;;;2.22;;
66546;SDS011;53400;50.364;14.874;2022-11-02T12:52:06;7.90;;;2.45;;
66546;SDS011;53400;50.364;14.874;2022-11-02T12:54:42;9.63;;;2.25;;
66546;SDS011;53400;50.364;14.874;2022-11-02T12:57:12;6.38;;;2.17;;
66546;SDS011;53400;50.364;14.874;2022-11-02T12:59:43;5.72;;;1.90;;
66546;SDS011;53400;50.364;14.874;2022-11-02T13:02:12;5.43;;;2.13;;
66546;SDS011;53400;50.364;14.874;2022-11-02T13:04:44;11.15;;;2.85;;
66546;SDS011;53400;50.364;14.874;2022-11-02T13:09:44;6.20;;;1.92;;
66546;SDS011;53400;50.364;14.874;2022-11-02T13:12:18;10.70;;;2.55;;
66546;SDS011;53400;50.364;14.874;2022-11-02T13:14:48;7.70;;;2.40;;
66546;SDS011;53400;50.364;14.874;2022-11-02T13:17:18;8.70;;;2.38;;
66546;SDS011;53400;50.364;14.874;2022-11-02T13:19:46;10.18;;;2.72;;
66546;SDS011;53400;50.364;14.874;2022-11-02T13:22:17;7.03;;;2.03;;
66546;SDS011;53400;50.364;14.874;2022-11-02T13:24:46;9.15;;;2.42;;
66546;SDS011;53400;50.364;14.874;2022-11-02T13:27:23;6.63;;;2.22;;
66546;SDS011;53400;50.364;14.874;2022-11-02T13:29:54;7.28;;;2.03;;
66546;SDS011;53400;50.364;14.874;2022-11-02T13:32:26;9.10;;;1.90;;
66546;SDS011;53400;50.364;14.874;2022-11-02T13:34:56;8.48;;;2.03;;
66546;SDS011;53400;50.364;14.874;2022-11-02T13:37:25;5.50;;;1.85;;
66546;SDS011;53400;50.364;14.874;2022-11-02T13:39:55;7.57;;;2.10;;
66546;SDS011;53400;50.364;14.874;2022-11-02T13:42:34;6.57;;;2.15;;
66546;SDS011;53400;50.364;14.874;2022-11-02T13:45:23;8.05;;;2.10;;
66546;SDS011;53400;50.364;14.874;2022-11-02T13:51:02;6.55;;;2.28;;
66546;SDS011;53400;50.364;14.874;2022-11-02T13:53:32;6.90;;;2.30;;
66546;SDS011;53400;50.364;14.874;2022-11-02T13:56:03;7.25;;;2.30;;
66546;SDS011;53400;50.364;14.874;2022-11-02T13:58:33;9.43;;;2.40;;
66546;SDS011;53400;50.364;14.874;2022-11-02T14:01:03;11.20;;;2.15;;
66546;SDS011;53400;50.364;14.874;2022-11-02T14:03:32;10.27;;;2.75;;
66546;SDS011;53400;50.364;14.874;2022-11-02T14:06:12;7.80;;;2.63;;
66546;SDS011;53400;50.364;14.874;2022-11-02T14:08:40;8.68;;;2.40;;
66546;SDS011;53400;50.364;14.874;2022-11-02T14:11:24;9.38;;;2.63;;
66546;SDS011;53400;50.364;14.874;2022-11-02T14:17:08;5.30;;;1.73;;
66546;SDS011;53400;50.364;14.874;2022-11-02T14:19:50;9.10;;;2.10;;
66546;SDS011;53400;50.364;14.874;2022-11-02T14:22:18;5.18;;;1.88;;
66546;SDS011;53400;50.364;14.874;2022-11-02T14:24:52;5.40;;;1.55;;
66546;SDS011;53400;50.364;14.874;2022-11-02T14:27:38;4.57;;;1.83;;
66546;SDS011;53400;50.364;14.874;2022-11-02T14:30:18;6.03;;;1.63;;
66546;SDS011;53400;50.364;14.874;2022-11-02T14:36:07;5.60;;;1.80;;
66546;SDS011;53400;50.364;14.874;2022-11-02T14:38:42;4.50;;;1.90;;
66546;SDS011;53400;50.364;14.874;2022-11-02T14:41:19;5.82;;;1.55;;
66546;SDS011;53400;50.364;14.874;2022-11-02T14:47:05;7.68;;;2.35;;
66546;SDS011;53400;50.364;14.874;2022-11-02T14:49:36;6.45;;;1.85;;
66546;SDS011;53400;50.364;14.874;2022-11-02T14:52:05;5.90;;;1.60;;
66546;SDS011;53400;50.364;14.874;2022-11-02T14:54:45;6.80;;;1.77;;
66546;SDS011;53400;50.364;14.874;2022-11-02T14:57:20;5.97;;;1.60;;
66546;SDS011;53400;50.364;14.874;2022-11-02T14:59:52;4.07;;;1.52;;
66546;SDS011;53400;50.364;14.874;2022-11-02T15:02:21;5.43;;;1.80;;
66546;SDS011;53400;50.364;14.874;2022-11-02T15:04:56;4.85;;;1.50;;